Santana do Matos, Brazil
Current Conditions -  °F | °C
As of 3:00 PM on Tuesday 21 Oct 2014 (Local Time) from SBNT Reporting Station
Scattered Clouds Scattered Clouds  
Wind Chill: 82°   Ceiling: Unl
Heat Index: 85°   Visibility: 6mi
Dew Point: 66°   Wind: 20mph
Humidity: 58%   Direction: 130°SE
Pressure: 29.88"   Gusts: NA
Location:  5.96°S, 36.66°W
Report Text: SBNT 211800Z 13017KT 9999 SCT020 SCT100 28/19 Q1012
Loading
Personal Weather Stations






























Interactive Weather Map
Tropical Storm Tracking
New forecast layout! Learn more

10-Day Weather Forecast

Advertisements
Track Severe Weather on mobile